CMA CGM Columba — 2DBC9 — position and weather

sailwx.info

Track history (hours):
 
Tides and Currents Weather Stations Pressure Air Temp Water Temp Dewpoint Dewpoint Depression Visibility Wind Speed Wind Dir Waves Ship Positions

CMA CGM Columba

Last reported at 2016-May-04 00:16 UTC. Time now 2016-May-05 12:22 UTC.
Position N 22°23' E 114°29'.

Length 363 m; draft 11.1 m.

Type: Ship (hazmat cat A). MMSI: 235077448.

Date/timePositionNaut miles runAvg speedWind from/ knotsBaromVisibWave heightAir tempDewpointWater temp
2016-May-04 00:16N 22°23' E 114°29'1114.6
2016-May-03 23:33N 22°13' E 114°29'1713.1
2016-May-03 22:15N 22°12' E 114°10'7 9.8
2016-May-03 21:33N 22°18' E 114°06'3 2.8
2016-May-03 20:29N 22°20' E 114°07'0 0.0
2016-May-03 19:32N 22°20' E 114°07'0 0.0
2016-May-03 17:11N 22°20' E 114°07'0 0.0
2016-May-03 16:14N 22°20' E 114°07'0 0.0
2016-May-03 15:23N 22°20' E 114°07'0 0.0
2016-May-03 13:29N 22°20' E 114°07'0 0.0
2016-May-03 10:29N 22°20' E 114°07'0 0.0
2016-May-03 09:29N 22°20' E 114°07'0 0.0
2016-May-03 07:29N 22°20' E 114°07'0 0.0
2016-May-03 05:29N 22°20' E 114°07'1 0.2
2016-May-03 02:34N 22°20' E 114°07'12 8.7
2016-May-03 01:14N 22°10' E 114°13'2110.7
2016-May-02 23:15N 22°09' E 113°50'1014.3
2016-May-02 22:33N 22°19' E 113°48'11 0.6
2016-May-02 05:18N 22°29' E 113°45'1114.6
2016-May-02 04:33N 22°19' E 113°48'1312.6
2016-May-02 03:30N 22°06' E 113°51'3010.0
2016-May-02 00:33N 22°08' E 114°23'24717.2
2016-May-01 10:11N 24°08' E 118°18'1015.8
2016-May-01 09:33N 24°17' E 118°13'1313.3
2016-May-01 08:34N 24°26' E 118°02'2 1.8
2016-May-01 07:33N 24°27' E 118°00'0 0.0
2016-May-01 06:33N 24°27' E 118°00'0 0.0
2016-May-01 05:33N 24°27' E 118°00'0 0.0
2016-May-01 04:33N 24°27' E 118°00'0 0.0
2016-May-01 03:33N 24°27' E 118°00'0 0.0
2016-May-01 02:33N 24°27' E 118°00'0 0.0
2016-May-01 01:33N 24°27' E 118°00'0 0.0
2016-May-01 00:12N 24°27' E 118°00'0 0.0
2016-Apr-30 23:30N 24°27' E 118°00'0 0.0
2016-Apr-30 22:30N 24°27' E 118°00'0 0.0
2016-Apr-30 21:30N 24°27' E 118°00'0 0.0
2016-Apr-30 20:30N 24°27' E 118°00'0 0.0
2016-Apr-30 19:24N 24°27' E 118°00'0 0.0
2016-Apr-30 18:30N 24°27' E 118°00'0 0.0
2016-Apr-30 17:33N 24°27' E 118°00'0 0.0
2016-Apr-30 16:30N 24°27' E 118°00'1 0.9
2016-Apr-30 15:34N 24°26' E 118°01'9 9.3
2016-Apr-30 14:33N 24°21' E 118°10'1211.6
2016-Apr-30 13:32N 24°12' E 118°18'5213.1
2016-Apr-30 09:32N 24°34' E 119°10'1313.7
2016-Apr-30 08:33N 24°42' E 119°22'1513.3
2016-Apr-30 07:24N 24°51' E 119°36'2412.8
2016-Apr-30 05:32N 25°15' E 119°42'1110.9
2016-Apr-30 04:33N 25°19' E 119°31'1312.9
2016-Apr-30 03:33N 25°24' E 119°18'2 1.3
2016-Apr-30 02:18N 25°25' E 119°17'0 0.0
2016-Apr-30 01:24N 25°25' E 119°17'0 0.0
2016-Apr-30 00:18N 25°25' E 119°17'0 0.0
2016-Apr-29 23:24N 25°25' E 119°17'0 0.1
2016-Apr-29 22:24N 25°25' E 119°17'0 0.0
2016-Apr-29 21:06N 25°25' E 119°17'0 0.0
2016-Apr-29 20:30N 25°25' E 119°17'0 0.0
2016-Apr-29 19:30N 25°25' E 119°17'0 0.0
2016-Apr-29 18:12N 25°25' E 119°17'0 0.1
2016-Apr-29 17:30N 25°25' E 119°17'0 0.0
2016-Apr-29 16:24N 25°25' E 119°17'0 0.0
2016-Apr-29 14:30N 25°25' E 119°17'0 0.0
2016-Apr-29 13:24N 25°25' E 119°17'0 0.0
2016-Apr-29 12:12N 25°25' E 119°17'0 0.0
2016-Apr-29 11:30N 25°25' E 119°17'0 0.0
2016-Apr-29 10:30N 25°25' E 119°17'0 0.1
2016-Apr-29 09:30N 25°25' E 119°17'0 0.1
2016-Apr-29 08:30N 25°25' E 119°17'0 0.0
2016-Apr-29 07:30N 25°25' E 119°17'0 0.0
2016-Apr-29 06:24N 25°25' E 119°17'0 0.0
2016-Apr-29 03:18N 25°25' E 119°17'0 0.1
2016-Apr-29 02:18N 25°25' E 119°17'0 0.0
2016-Apr-29 00:24N 25°25' E 119°17'0 0.0
2016-Apr-28 23:24N 25°25' E 119°17'0 0.0
2016-Apr-28 22:24N 25°25' E 119°17'0 0.1
2016-Apr-28 21:30N 25°25' E 119°17'0 0.0
2016-Apr-28 20:24N 25°25' E 119°17'0 0.6
2016-Apr-28 19:33N 25°25' E 119°17'1111.2
2016-Apr-28 18:34N 25°19' E 119°28'9 8.7
2016-Apr-28 17:33N 25°17' E 119°37'9 8.8
2016-Apr-28 16:31N 25°12' E 119°46'  
Track history (hours):
 
Tides and Currents Weather Stations Pressure Air Temp Water Temp Dewpoint Dewpoint Depression Visibility Wind Speed Wind Dir Waves Ship Positions

CMA CGM Columba

Last reported at 2016-May-04 00:16 UTC. Time now 2016-May-05 12:22 UTC.
Position N 22°23' E 114°29'.

Length 363 m; draft 11.1 m.

Type: Ship (hazmat cat A). MMSI: 235077448.

Date/timePositionNaut miles runAvg speedWind from/ knotsBaromVisibWave heightAir tempDewpointWater temp
2016-May-04 00:16N 22°23' E 114°29'1114.6
2016-May-03 23:33N 22°13' E 114°29'1713.1
2016-May-03 22:15N 22°12' E 114°10'7 9.8
2016-May-03 21:33N 22°18' E 114°06'3 2.8
2016-May-03 20:29N 22°20' E 114°07'0 0.0
2016-May-03 19:32N 22°20' E 114°07'0 0.0
2016-May-03 17:11N 22°20' E 114°07'0 0.0
2016-May-03 16:14N 22°20' E 114°07'0 0.0
2016-May-03 15:23N 22°20' E 114°07'0 0.0
2016-May-03 13:29N 22°20' E 114°07'0 0.0
2016-May-03 10:29N 22°20' E 114°07'0 0.0
2016-May-03 09:29N 22°20' E 114°07'0 0.0
2016-May-03 07:29N 22°20' E 114°07'0 0.0
2016-May-03 05:29N 22°20' E 114°07'1 0.2
2016-May-03 02:34N 22°20' E 114°07'12 8.7
2016-May-03 01:14N 22°10' E 114°13'2110.7
2016-May-02 23:15N 22°09' E 113°50'1014.3
2016-May-02 22:33N 22°19' E 113°48'11 0.6
2016-May-02 05:18N 22°29' E 113°45'1114.6
2016-May-02 04:33N 22°19' E 113°48'1312.6
2016-May-02 03:30N 22°06' E 113°51'3010.0
2016-May-02 00:33N 22°08' E 114°23'24717.2
2016-May-01 10:11N 24°08' E 118°18'1015.8
2016-May-01 09:33N 24°17' E 118°13'1313.3
2016-May-01 08:34N 24°26' E 118°02'2 1.8
2016-May-01 07:33N 24°27' E 118°00'0 0.0
2016-May-01 06:33N 24°27' E 118°00'0 0.0
2016-May-01 05:33N 24°27' E 118°00'0 0.0
2016-May-01 04:33N 24°27' E 118°00'0 0.0
2016-May-01 03:33N 24°27' E 118°00'0 0.0
2016-May-01 02:33N 24°27' E 118°00'0 0.0
2016-May-01 01:33N 24°27' E 118°00'0 0.0
2016-May-01 00:12N 24°27' E 118°00'0 0.0
2016-Apr-30 23:30N 24°27' E 118°00'0 0.0
2016-Apr-30 22:30N 24°27' E 118°00'0 0.0
2016-Apr-30 21:30N 24°27' E 118°00'0 0.0
2016-Apr-30 20:30N 24°27' E 118°00'0 0.0
2016-Apr-30 19:24N 24°27' E 118°00'0 0.0
2016-Apr-30 18:30N 24°27' E 118°00'0 0.0
2016-Apr-30 17:33N 24°27' E 118°00'0 0.0
2016-Apr-30 16:30N 24°27' E 118°00'1 0.9
2016-Apr-30 15:34N 24°26' E 118°01'9 9.3
2016-Apr-30 14:33N 24°21' E 118°10'1211.6
2016-Apr-30 13:32N 24°12' E 118°18'5213.1
2016-Apr-30 09:32N 24°34' E 119°10'1313.7
2016-Apr-30 08:33N 24°42' E 119°22'1513.3
2016-Apr-30 07:24N 24°51' E 119°36'2412.8
2016-Apr-30 05:32N 25°15' E 119°42'1110.9
2016-Apr-30 04:33N 25°19' E 119°31'1312.9
2016-Apr-30 03:33N 25°24' E 119°18'2 1.3
2016-Apr-30 02:18N 25°25' E 119°17'0 0.0
2016-Apr-30 01:24N 25°25' E 119°17'0 0.0
2016-Apr-30 00:18N 25°25' E 119°17'0 0.0
2016-Apr-29 23:24N 25°25' E 119°17'0 0.1
2016-Apr-29 22:24N 25°25' E 119°17'0 0.0
2016-Apr-29 21:06N 25°25' E 119°17'0 0.0
2016-Apr-29 20:30N 25°25' E 119°17'0 0.0
2016-Apr-29 19:30N 25°25' E 119°17'0 0.0
2016-Apr-29 18:12N 25°25' E 119°17'0 0.1
2016-Apr-29 17:30N 25°25' E 119°17'0 0.0
2016-Apr-29 16:24N 25°25' E 119°17'0 0.0
2016-Apr-29 14:30N 25°25' E 119°17'0 0.0
2016-Apr-29 13:24N 25°25' E 119°17'0 0.0
2016-Apr-29 12:12N 25°25' E 119°17'0 0.0
2016-Apr-29 11:30N 25°25' E 119°17'0 0.0
2016-Apr-29 10:30N 25°25' E 119°17'0 0.1
2016-Apr-29 09:30N 25°25' E 119°17'0 0.1
2016-Apr-29 08:30N 25°25' E 119°17'0 0.0
2016-Apr-29 07:30N 25°25' E 119°17'0 0.0
2016-Apr-29 06:24N 25°25' E 119°17'0 0.0
2016-Apr-29 03:18N 25°25' E 119°17'0 0.1
2016-Apr-29 02:18N 25°25' E 119°17'0 0.0
2016-Apr-29 00:24N 25°25' E 119°17'0 0.0
2016-Apr-28 23:24N 25°25' E 119°17'0 0.0
2016-Apr-28 22:24N 25°25' E 119°17'0 0.1
2016-Apr-28 21:30N 25°25' E 119°17'0 0.0
2016-Apr-28 20:24N 25°25' E 119°17'0 0.6
2016-Apr-28 19:33N 25°25' E 119°17'1111.2
2016-Apr-28 18:34N 25°19' E 119°28'9 8.7
2016-Apr-28 17:33N 25°17' E 119°37'9 8.8
2016-Apr-28 16:31N 25°12' E 119°46'  

Dump ship's entire track history